Island Trees, New York
Current Conditions -  °F | °C
As of 1:51 PM on Wednesday 26 Nov 2014 (Local Time) from KJFK Reporting Station
Light Snow Light Snow  
Wind Chill: 27°   Ceiling: 600
Heat Index: 36°   Visibility: 3mi
Dew Point: 33°   Wind: 15mph
Humidity: 89%   Direction: 10°N
Pressure: 29.92"   Gusts: 23mph
Location:  40.7255°N, 73.5165°W
Report Text: KJFK 261851Z 01013G20KT 3SM -RASN BR BKN006 BKN045 OVC080 02/01 A2992 RMK AO2 SFC VIS 5 SNE13B43PLE43 SLP132 P0009 T00220006 $
Loading
Personal Weather Stations






























Interactive Weather Map New forecast layout! Learn more

10-Day Weather Forecast

Advertisements
Track Severe Weather on mobile